Terminal Aerodrome Forecast
Issued by NWS Charleston, WV

Current Version | Previous Version | Text Only | Print | Product List | Glossary Off
Versions: 1 2 3 4 5 6 7 8 9 10 11 12 13 14 15 16 17 18 19 20 21 22 23 24 25

000
FTUS41 KRLX 281725
TAFBKW
TAF
KBKW 281725Z 2818/2918 01007KT P6SM VCTS SCT030CB
     FM282200 00000KT P6SM SCT045
     FM290700 00000KT 5SM BR SCT045
     FM291000 VRB03KT 2SM BR BKN010
     FM291200 00000KT P6SM BKN025=

USA.gov is the U.S. government's official web portal to all federal, state and local government web resources and services.